Time;durP1;ratioP1;P1;durP2;ratioP2;P2;SDS_P1;SDS_P2;PMS_P1;PMS_P2;Temp;Humidity;BMP_temperature;BMP_pressure;BME280_temperature;BME280_humidity;BME280_pressure;Samples;Min_cycle;Max_cycle;Signal;HPM_P1;HPM_P2
2022/03/08 00:02:31;;;;;;;106.93;24.20;;;;;;;-1.32;73.19;99404.22;2222361;80;21339;-84
2022/03/08 00:05:32;;;;;;;87.67;18.87;;;;;;;-1.33;73.16;99403.73;2222321;80;21615;-84
2022/03/08 00:08:32;;;;;;;52.90;18.13;;;;;;;-1.38;72.93;99404.20;2221913;80;21283;-84
2022/03/08 00:11:33;;;;;;;55.00;16.93;;;;;;;-1.41;72.88;99407.84;2221846;80;20944;-83
2022/03/08 00:14:34;;;;;;;50.43;15.97;;;;;;;-1.45;72.95;99406.75;2221699;80;21047;-85
2022/03/08 00:17:34;;;;;;;36.23;17.67;;;;;;;-1.50;72.80;99407.22;2221802;80;20960;-85
2022/03/08 00:20:35;;;;;;;33.87;15.77;;;;;;;-1.55;72.61;99413.70;2221784;80;21398;-84
2022/03/08 00:23:35;;;;;;;39.40;16.83;;;;;;;-1.61;73.11;99412.89;2222215;80;20995;-84
2022/03/08 00:26:36;;;;;;;41.17;18.87;;;;;;;-1.63;73.24;99414.06;2222038;80;20964;-84
2022/03/08 00:29:37;;;;;;;47.93;19.30;;;;;;;-1.68;73.23;99417.98;2221959;80;20987;-83
2022/03/08 00:32:37;;;;;;;30.63;17.10;;;;;;;-1.76;73.26;99412.70;2221767;80;21316;-83
2022/03/08 00:35:37;;;;;;;34.43;17.73;;;;;;;-1.82;72.97;99428.91;2221549;80;21410;-84
2022/03/08 00:38:38;;;;;;;34.33;16.73;;;;;;;-1.86;73.20;99426.92;2221987;80;20967;-84
2022/03/08 00:41:38;;;;;;;36.73;18.40;;;;;;;-1.88;73.50;99429.77;2221881;80;20972;-85
2022/03/08 00:44:39;;;;;;;51.33;18.37;;;;;;;-1.88;73.35;99431.05;2221560;78;20964;-84
2022/03/08 00:47:39;;;;;;;45.80;18.93;;;;;;;-1.89;73.37;99419.42;2211478;81;20963;-84
2022/03/08 00:50:40;;;;;;;42.70;17.23;;;;;;;-1.87;73.62;99428.09;2211484;81;20956;-84
2022/03/08 00:53:43;;;;;;;163.00;24.87;;;;;;;-1.86;73.45;99422.20;2189837;81;20925;-83
2022/03/08 00:56:44;;;;;;;143.33;20.13;;;;;;;-1.89;73.38;99419.42;2211330;81;21015;-78
2022/03/08 00:59:44;;;;;;;184.20;22.80;;;;;;;-1.94;73.17;99413.60;2210746;81;20949;-78
2022/03/08 01:02:44;;;;;;;105.10;19.00;;;;;;;-2.00;72.89;99413.56;2211449;81;21640;-85
2022/03/08 01:05:45;;;;;;;80.17;18.53;;;;;;;-2.05;72.96;99411.97;2211454;81;21387;-82
2022/03/08 01:08:46;;;;;;;64.00;17.03;;;;;;;-2.09;72.81;99418.04;2211402;81;21312;-83
2022/03/08 01:11:46;;;;;;;46.73;18.07;;;;;;;-2.13;73.10;99415.66;2211463;81;20972;-82
2022/03/08 01:14:47;;;;;;;40.73;16.00;;;;;;;-2.15;72.84;99415.05;2211081;79;20972;-82
2022/03/08 01:17:47;;;;;;;39.37;16.50;;;;;;;-2.21;72.92;99415.51;2211286;81;20980;-82
2022/03/08 01:20:48;;;;;;;44.57;17.30;;;;;;;-2.24;72.86;99410.17;2211135;81;21019;-82
2022/03/08 01:23:48;;;;;;;33.93;15.57;;;;;;;-2.29;72.62;99403.46;2211505;81;21007;-81
2022/03/08 01:26:49;;;;;;;36.03;16.03;;;;;;;-2.34;72.61;99400.97;2211636;81;20961;-82
2022/03/08 01:29:49;;;;;;;34.97;14.37;;;;;;;-2.39;72.79;99401.42;2211585;81;21051;-84
2022/03/08 01:32:50;;;;;;;33.73;14.33;;;;;;;-2.39;73.23;99395.03;2211469;81;20960;-82
2022/03/08 01:35:50;;;;;;;29.13;13.87;;;;;;;-2.44;73.11;99392.15;2211536;81;20984;-82
2022/03/08 01:38:51;;;;;;;86.37;18.93;;;;;;;-2.48;73.27;99395.66;2211393;81;20968;-83
2022/03/08 01:41:51;;;;;;;61.77;15.13;;;;;;;-2.49;73.58;99384.94;2211392;81;20987;-82
2022/03/08 01:44:52;;;;;;;60.83;16.40;;;;;;;-2.47;73.62;99389.38;2211361;79;21303;-82
2022/03/08 01:47:52;;;;;;;37.67;15.97;;;;;;;-2.47;73.59;99378.27;2202908;81;20988;-81
2022/03/08 01:50:53;;;;;;;34.70;12.87;;;;;;;-2.46;73.25;99383.87;2202475;81;20925;-83
2022/03/08 01:53:53;;;;;;;76.07;27.30;;;;;;;-2.52;73.23;99388.55;2202815;81;20952;-83
2022/03/08 01:56:54;;;;;;;56.07;22.40;;;;;;;-2.57;73.31;99392.95;2202952;81;20965;-83
2022/03/08 01:59:54;;;;;;;51.07;21.87;;;;;;;-2.59;73.30;99393.23;2202774;81;21311;-83
2022/03/08 02:02:55;;;;;;;60.97;26.07;;;;;;;-2.60;73.97;99394.00;2203053;81;20993;-83
2022/03/08 02:05:55;;;;;;;61.90;28.83;;;;;;;-2.57;74.83;99396.78;2203043;81;21365;-83
2022/03/08 02:08:56;;;;;;;58.30;25.77;;;;;;;-2.60;75.04;99397.84;2203201;81;20920;-82
2022/03/08 02:11:56;;;;;;;56.97;26.27;;;;;;;-2.55;75.57;99406.22;2203043;81;20953;-81
2022/03/08 02:14:57;;;;;;;53.27;24.50;;;;;;;-2.58;75.63;99399.22;2202723;79;20960;-84
2022/03/08 02:17:57;;;;;;;48.30;21.90;;;;;;;-2.60;75.74;99404.23;2202546;81;20929;-82
2022/03/08 02:20:58;;;;;;;42.70;20.17;;;;;;;-2.58;76.15;99411.62;2202683;81;21396;-82
2022/03/08 02:23:58;;;;;;;49.03;20.63;;;;;;;-2.59;76.21;99416.23;2202793;81;20948;-82
2022/03/08 02:26:58;;;;;;;45.03;19.33;;;;;;;-2.60;76.39;99417.39;2202698;81;20921;-82
2022/03/08 02:29:59;;;;;;;47.43;20.13;;;;;;;-2.65;76.30;99416.14;2202755;81;20909;-82
2022/03/08 02:32:59;;;;;;;37.60;19.03;;;;;;;-2.69;76.30;99417.59;2202770;81;20989;-81
2022/03/08 02:36:00;;;;;;;35.30;17.27;;;;;;;-2.70;76.35;99419.64;2202720;81;21427;-82
2022/03/08 02:39:00;;;;;;;36.03;20.23;;;;;;;-2.73;76.44;99421.98;2202838;81;20979;-80
2022/03/08 02:42:01;;;;;;;31.93;17.33;;;;;;;-2.72;76.55;99419.92;2202873;81;20941;-80
2022/03/08 02:45:01;;;;;;;41.07;18.10;;;;;;;-2.70;76.68;99408.53;2202406;79;20989;-82
2022/03/08 02:48:02;;;;;;;35.77;17.53;;;;;;;-2.65;76.67;99420.86;2202700;81;20937;-81
2022/03/08 02:51:03;;;;;;;32.00;16.20;;;;;;;-2.61;76.71;99422.86;2202610;81;20987;-82
2022/03/08 02:54:04;;;;;;;33.10;17.23;;;;;;;-2.53;76.59;99422.56;2202624;81;20980;-81
2022/03/08 02:57:04;;;;;;;32.27;16.60;;;;;;;-2.44;76.72;99418.11;2202514;81;20997;-81
2022/03/08 03:00:05;;;;;;;33.67;16.07;;;;;;;-2.37;76.71;99415.20;2202613;81;21035;-79
2022/03/08 03:03:05;;;;;;;35.83;16.97;;;;;;;-2.30;77.00;99416.14;2202449;81;20968;-82
2022/03/08 03:06:06;;;;;;;32.90;15.70;;;;;;;-2.21;77.12;99412.95;2203021;81;21357;-81
2022/03/08 03:09:06;;;;;;;34.37;17.27;;;;;;;-2.16;77.03;99415.44;2203061;81;21335;-81
2022/03/08 03:12:07;;;;;;;37.47;17.23;;;;;;;-2.13;77.07;99418.21;2203488;81;20936;-82
2022/03/08 03:15:07;;;;;;;31.23;15.30;;;;;;;-2.08;77.03;99415.98;2202996;79;20932;-83
2022/03/08 03:18:08;;;;;;;30.13;16.33;;;;;;;-2.03;77.04;99423.19;2203147;81;20980;-82
2022/03/08 03:21:08;;;;;;;44.50;19.57;;;;;;;-1.99;76.92;99420.06;2202703;81;20975;-81
2022/03/08 03:24:09;;;;;;;77.00;19.20;;;;;;;-1.94;76.42;99430.63;2202767;81;21322;-82
2022/03/08 03:27:09;;;;;;;111.93;21.33;;;;;;;-1.88;76.21;99430.16;2203790;81;20965;-83
2022/03/08 03:30:10;;;;;;;32.87;15.27;;;;;;;-1.84;75.95;99433.42;2203133;81;20981;-83
2022/03/08 03:33:10;;;;;;;28.50;14.63;;;;;;;-1.81;75.72;99429.80;2203182;81;20972;-83
2022/03/08 03:36:11;;;;;;;27.23;14.37;;;;;;;-1.88;75.10;99436.16;2203055;81;20948;-83
2022/03/08 03:39:11;;;;;;;84.07;18.70;;;;;;;-1.96;74.98;99442.42;2202858;81;20929;-82
2022/03/08 03:42:12;;;;;;;49.43;16.20;;;;;;;-1.97;75.11;99443.20;2202978;81;20968;-82
2022/03/08 03:45:12;;;;;;;369.93;36.23;;;;;;;-1.97;75.09;99453.05;2202925;79;21008;-80
2022/03/08 03:48:13;;;;;;;277.17;28.53;;;;;;;-1.96;75.24;99452.66;2202967;81;21092;-82
2022/03/08 03:51:13;;;;;;;63.20;15.73;;;;;;;-1.95;75.25;99450.20;2203552;81;21000;-82
2022/03/08 03:54:14;;;;;;;66.10;16.60;;;;;;;-1.97;74.98;99454.33;2202917;81;21020;-82
2022/03/08 03:57:14;;;;;;;66.30;15.03;;;;;;;-1.98;75.14;99451.27;2202316;81;21409;-83
2022/03/08 04:00:15;;;;;;;37.87;14.93;;;;;;;-1.94;75.19;99448.53;2202806;81;20948;-83
2022/03/08 04:03:18;;;;;;;73.17;15.90;;;;;;;-1.94;74.83;99443.41;2202970;81;20948;-83
2022/03/08 04:06:19;;;;;;;110.63;17.33;;;;;;;-1.93;75.01;99448.64;2202922;81;21044;-82
2022/03/08 04:09:20;;;;;;;41.63;13.37;;;;;;;-1.89;74.82;99452.69;2202772;81;20921;-83
2022/03/08 04:12:20;;;;;;;41.83;13.43;;;;;;;-1.81;75.11;99456.67;2202630;81;20929;-82
2022/03/08 04:15:21;;;;;;;168.60;20.77;;;;;;;-1.69;75.21;99462.67;2203011;81;20961;-82
2022/03/08 04:18:21;;;;;;;52.70;13.87;;;;;;;-1.59;74.96;99463.80;2202912;81;20988;-82
2022/03/08 04:21:22;;;;;;;38.20;13.27;;;;;;;-1.53;74.83;99465.91;2202735;81;21293;-82
2022/03/08 04:24:22;;;;;;;28.47;12.27;;;;;;;-1.46;75.05;99474.11;2202364;81;21047;-82
2022/03/08 04:27:23;;;;;;;24.07;11.30;;;;;;;-1.41;75.26;99470.19;2202405;81;20996;-82
2022/03/08 04:30:23;;;;;;;19.07;10.93;;;;;;;-1.35;75.42;99471.89;2202188;81;21000;-82
2022/03/08 04:33:24;;;;;;;29.07;14.30;;;;;;;-1.33;75.52;99474.16;2202513;81;20991;-81
2022/03/08 04:36:24;;;;;;;29.00;15.23;;;;;;;-1.33;75.62;99476.72;2202322;81;20968;-82
2022/03/08 04:39:25;;;;;;;30.27;17.23;;;;;;;-1.30;75.55;99489.73;2202652;81;21355;-82
2022/03/08 04:42:25;;;;;;;35.87;21.20;;;;;;;-1.24;75.59;99484.53;2202269;81;20995;-82
2022/03/08 04:48:45;;;;;;;37.97;21.60;;;;;;;-1.14;75.76;99483.09;2238627;79;22742;-83
2022/03/08 04:51:45;;;;;;;39.70;21.43;;;;;;;-1.20;75.71;99480.11;2188231;80;20960;-84
2022/03/08 04:54:45;;;;;;;45.57;22.97;;;;;;;-1.17;75.73;99476.48;2187884;81;20999;-83
2022/03/08 04:57:46;;;;;;;32.53;20.20;;;;;;;-1.17;75.81;99475.20;2187703;81;20967;-84
2022/03/08 05:00:50;;;;;;;42.70;21.30;;;;;;;-1.15;75.91;99473.23;2187254;81;21003;-83
2022/03/08 05:03:50;;;;;;;42.07;24.47;;;;;;;-1.13;76.00;99477.19;2188110;81;20964;-83
2022/03/08 05:06:51;;;;;;;38.80;22.17;;;;;;;-1.11;75.92;99478.17;2188444;81;20995;-85
2022/03/08 05:09:51;;;;;;;40.27;21.77;;;;;;;-1.10;75.96;99481.23;2188785;81;20971;-84
2022/03/08 05:12:53;;;;;;;33.57;18.77;;;;;;;-1.04;76.06;99481.64;2189081;81;21032;-84
2022/03/08 05:15:54;;;;;;;38.80;18.63;;;;;;;-1.02;76.15;99480.07;2190548;81;20972;-83
2022/03/08 05:18:54;;;;;;;38.50;19.33;;;;;;;-1.00;76.14;99492.59;2190425;81;20991;-83
2022/03/08 05:21:55;;;;;;;38.73;20.40;;;;;;;-0.98;76.38;99494.86;2189612;81;20995;-81
2022/03/08 05:24:55;;;;;;;34.37;19.37;;;;;;;-0.96;76.34;99493.30;2189060;81;20996;-84
2022/03/08 05:27:56;;;;;;;31.57;17.47;;;;;;;-0.92;76.45;99491.83;2188470;81;20987;-83
2022/03/08 05:30:56;;;;;;;38.07;20.17;;;;;;;-0.86;76.47;99490.98;2189141;81;20933;-85
2022/03/08 05:33:57;;;;;;;31.83;17.53;;;;;;;-0.81;76.57;99489.22;2187925;81;21003;-85
2022/03/08 05:36:57;;;;;;;27.77;16.47;;;;;;;-0.76;76.45;99490.81;2188167;81;20990;-84
2022/03/08 05:39:58;;;;;;;29.57;16.53;;;;;;;-0.73;76.45;99490.62;2188675;81;20995;-83
2022/03/08 05:43:00;;;;;;;34.87;15.23;;;;;;;-0.68;76.42;99490.92;2187773;81;20936;-84
2022/03/08 05:46:01;;;;;;;24.53;15.40;;;;;;;-0.62;76.56;99494.28;2186896;81;21086;-83
2022/03/08 05:49:01;;;;;;;42.13;14.83;;;;;;;-0.58;76.47;99492.02;2170980;81;21391;-84
2022/03/08 05:52:02;;;;;;;32.60;16.63;;;;;;;-0.47;76.41;99500.41;2171057;82;21350;-84
2022/03/08 05:55:02;;;;;;;33.73;18.63;;;;;;;-0.40;76.29;99502.59;2171672;81;21434;-85
2022/03/08 05:58:03;;;;;;;32.00;18.70;;;;;;;-0.29;76.23;99502.00;2171234;81;21020;-83
2022/03/08 06:01:03;;;;;;;28.07;16.60;;;;;;;-0.19;76.09;99509.10;2170594;81;20992;-83
2022/03/08 06:04:04;;;;;;;30.20;16.47;;;;;;;-0.12;76.05;99508.70;2170513;82;21431;-82
2022/03/08 06:07:04;;;;;;;24.30;15.87;;;;;;;-0.02;75.86;99514.92;2170601;81;20996;-83
2022/03/08 06:10:07;;;;;;;33.77;18.20;;;;;;;0.09;75.82;99518.59;2170824;82;21857;-82
2022/03/08 06:13:07;;;;;;;35.33;19.83;;;;;;;0.11;75.61;99511.48;2171164;81;21388;-81
2022/03/08 06:16:08;;;;;;;31.77;18.67;;;;;;;0.10;75.55;99517.80;2171137;81;20968;-81
2022/03/08 06:19:09;;;;;;;35.97;18.43;;;;;;;0.13;75.74;99525.70;2170808;81;21000;-81
2022/03/08 06:22:09;;;;;;;117.90;22.07;;;;;;;0.15;75.80;99526.69;2171919;81;20965;-83
2022/03/08 06:25:10;;;;;;;29.40;15.93;;;;;;;0.08;75.86;99535.67;2172365;81;20960;-83
2022/03/08 06:31:12;;;;;;;29.13;17.30;;;;;;;0.03;76.08;99542.20;2160936;82;21051;-84
2022/03/08 06:34:13;;;;;;;31.13;16.33;;;;;;;-0.10;76.60;99542.16;2171610;81;21431;-83
2022/03/08 06:37:13;;;;;;;30.50;16.87;;;;;;;-0.19;76.65;99536.05;2170780;81;21395;-84
2022/03/08 06:40:14;;;;;;;35.30;17.27;;;;;;;-0.22;77.04;99533.67;2170831;81;20972;-83
2022/03/08 06:43:14;;;;;;;32.93;17.13;;;;;;;-0.25;76.98;99534.76;2170975;81;21027;-83
2022/03/08 06:46:15;;;;;;;202.13;26.93;;;;;;;-0.27;77.43;99531.20;2170420;81;21028;-85
2022/03/08 06:49:16;;;;;;;35.50;19.37;;;;;;;-0.28;77.53;99540.58;2170437;81;21055;-85
2022/03/08 06:52:16;;;;;;;33.27;19.97;;;;;;;-0.28;77.63;99548.27;2170835;81;21028;-84
2022/03/08 06:55:17;;;;;;;46.00;22.97;;;;;;;-0.32;77.73;99551.03;2170996;81;20976;-85
2022/03/08 06:58:17;;;;;;;106.73;49.80;;;;;;;-0.39;77.83;99541.16;2171297;81;20914;-80
2022/03/08 07:01:18;;;;;;;38.70;22.13;;;;;;;-0.38;77.60;99544.22;2170486;81;21024;-80
2022/03/08 07:04:19;;;;;;;37.50;20.73;;;;;;;-0.37;77.95;99542.16;2171196;81;20999;-82
2022/03/08 07:07:19;;;;;;;35.20;20.50;;;;;;;-0.42;78.07;99549.05;2171079;81;21043;-84
2022/03/08 07:10:20;;;;;;;35.63;20.63;;;;;;;-0.43;78.61;99556.25;2170898;81;20938;-83
2022/03/08 07:16:31;;;;;;;53.97;23.43;;;;;;;-0.42;78.41;99550.33;2131058;83;21024;-81
2022/03/08 07:19:31;;;;;;;63.47;24.83;;;;;;;-0.34;78.37;99559.42;2167603;82;21019;-82
2022/03/08 07:22:32;;;;;;;92.03;25.13;;;;;;;-0.19;78.49;99562.98;2170952;81;20992;-80
2022/03/08 07:25:34;;;;;;;34.97;21.37;;;;;;;-0.15;78.31;99570.09;2171069;81;20977;-82
2022/03/08 07:28:35;;;;;;;47.17;27.27;;;;;;;-0.22;78.38;99565.35;2170182;81;21011;-78
2022/03/08 07:31:35;;;;;;;43.97;23.20;;;;;;;-0.29;78.53;99559.33;2170051;81;20988;-80
2022/03/08 07:34:36;;;;;;;50.00;28.67;;;;;;;-0.26;78.81;99564.66;2170417;81;21356;-80
2022/03/08 07:37:36;;;;;;;48.67;26.57;;;;;;;-0.28;78.67;99561.10;2170752;81;21036;-81
2022/03/08 07:40:37;;;;;;;54.33;25.67;;;;;;;-0.29;78.84;99555.88;2170829;81;20940;-81
2022/03/08 07:43:43;;;;;;;49.00;26.23;;;;;;;-0.27;78.96;99564.16;2170594;81;21014;-80
2022/03/08 07:46:43;;;;;;;41.57;24.60;;;;;;;-0.23;78.63;99563.97;2170572;81;21012;-82
2022/03/08 07:49:44;;;;;;;48.20;25.17;;;;;;;-0.22;78.64;99552.52;2186932;81;20995;-81
2022/03/08 07:52:44;;;;;;;46.07;25.50;;;;;;;-0.20;78.94;99556.08;2186652;81;20979;-82
2022/03/08 07:55:46;;;;;;;39.47;24.50;;;;;;;-0.20;78.71;99562.89;2187337;81;20963;-81
2022/03/08 07:58:47;;;;;;;45.33;25.73;;;;;;;-0.19;78.74;99562.09;2187248;81;21002;-81
2022/03/08 08:01:47;;;;;;;34.87;23.17;;;;;;;-0.15;78.36;99566.25;2186565;81;20976;-80
2022/03/08 08:04:48;;;;;;;40.53;23.07;;;;;;;-0.05;78.62;99565.16;2186886;81;20944;-81
2022/03/08 08:07:49;;;;;;;41.47;22.40;;;;;;;0.04;78.37;99571.32;2186651;81;20983;-80
2022/03/08 08:10:50;;;;;;;35.77;22.07;;;;;;;0.11;78.58;99572.20;2186934;81;20971;-82
2022/03/08 08:13:53;;;;;;;42.00;23.77;;;;;;;0.15;78.21;99579.31;2188176;81;21047;-80
2022/03/08 08:16:53;;;;;;;36.47;22.50;;;;;;;0.16;78.23;99574.28;2187351;81;21390;-80
2022/03/08 08:19:54;;;;;;;38.37;24.40;;;;;;;0.13;78.09;99565.48;2187700;81;21065;-80
2022/03/08 08:22:55;;;;;;;33.67;22.97;;;;;;;0.13;78.09;99565.48;2187310;81;20991;-80
2022/03/08 08:25:55;;;;;;;37.63;23.80;;;;;;;0.14;77.92;99569.44;2187110;81;21019;-82
2022/03/08 08:28:56;;;;;;;39.03;24.43;;;;;;;0.16;77.89;99570.42;2187604;81;20987;-83
2022/03/08 08:31:57;;;;;;;37.23;23.40;;;;;;;0.15;77.87;99569.94;2187056;81;20988;-82
2022/03/08 08:34:58;;;;;;;37.27;23.53;;;;;;;0.15;77.87;99563.91;2186829;81;21055;-82
2022/03/08 08:37:59;;;;;;;40.33;24.77;;;;;;;0.17;77.99;99582.87;2187210;81;21346;-81
2022/03/08 08:40:59;;;;;;;37.37;24.57;;;;;;;0.21;77.61;99580.59;2187434;81;22030;-84
2022/03/08 08:44:00;;;;;;;36.20;24.77;;;;;;;0.31;77.03;99584.64;2187345;81;20979;-83
2022/03/08 08:47:01;;;;;;;39.37;24.40;;;;;;;0.45;77.08;99587.68;2187564;81;21023;-81
2022/03/08 08:50:02;;;;;;;37.47;23.83;;;;;;;0.55;76.50;99591.72;2171645;81;21003;-82
2022/03/08 08:53:03;;;;;;;38.47;23.93;;;;;;;0.68;76.11;99600.68;2171233;81;21846;-81
2022/03/08 08:56:04;;;;;;;48.10;24.10;;;;;;;0.79;75.83;99602.63;2170783;81;20945;-79
2022/03/08 08:59:10;;;;;;;29.63;21.37;;;;;;;0.91;75.44;99603.42;2171238;81;20968;-82
2022/03/08 09:02:11;;;;;;;33.57;20.80;;;;;;;1.20;74.50;99611.63;2170586;82;20983;-82
2022/03/08 09:05:11;;;;;;;32.90;21.63;;;;;;;1.40;74.21;99610.26;2170321;81;20980;-81
2022/03/08 09:08:14;;;;;;;33.57;21.47;;;;;;;1.42;73.42;99595.80;2170187;82;21023;-81
2022/03/08 09:11:14;;;;;;;30.67;21.13;;;;;;;1.40;72.89;99605.11;2170064;81;20984;-82
2022/03/08 09:14:15;;;;;;;37.83;23.83;;;;;;;1.44;73.11;99612.22;2169981;81;20988;-81
2022/03/08 09:17:15;;;;;;;35.33;21.83;;;;;;;1.56;72.97;99611.66;2170310;81;21419;-80
2022/03/08 09:20:16;;;;;;;35.37;23.53;;;;;;;1.54;72.23;99605.13;2170380;81;21821;-79
2022/03/08 09:23:16;;;;;;;38.80;25.17;;;;;;;1.55;72.40;99600.48;2169334;81;21375;-80
2022/03/08 09:26:17;;;;;;;35.87;24.60;;;;;;;1.52;72.30;99600.69;2170473;81;21927;-81
2022/03/08 09:29:18;;;;;;;34.87;25.27;;;;;;;1.54;72.00;99593.55;2170144;82;20949;-81
2022/03/08 09:32:18;;;;;;;35.87;22.53;;;;;;;1.60;72.13;99591.34;2170218;81;20970;-82
2022/03/08 09:35:19;;;;;;;46.33;23.53;;;;;;;1.82;70.84;99592.62;2170230;81;21039;-81
2022/03/08 09:38:19;;;;;;;38.77;21.93;;;;;;;2.07;70.00;99583.33;2170400;81;21000;-80
2022/03/08 09:41:20;;;;;;;31.63;22.83;;;;;;;2.53;69.28;99582.52;2170541;81;20945;-82
2022/03/08 09:44:20;;;;;;;74.70;24.10;;;;;;;2.72;68.56;99586.13;2170913;81;20925;-81
2022/03/08 09:47:22;;;;;;;31.17;20.53;;;;;;;2.75;67.96;99585.02;2170812;81;21411;-82
2022/03/08 09:50:23;;;;;;;35.63;21.30;;;;;;;2.78;67.18;99590.33;2187114;81;21016;-81
2022/03/08 09:53:23;;;;;;;29.63;20.80;;;;;;;2.72;67.32;99588.31;2186826;81;20956;-82
2022/03/08 09:56:24;;;;;;;28.23;20.80;;;;;;;2.84;66.73;99581.64;2187983;81;21014;-81
2022/03/08 09:59:29;;;;;;;27.37;22.03;;;;;;;3.02;66.79;99564.97;2187281;81;20984;-81
2022/03/08 10:02:27;;;;;;;33.67;23.57;;;;;;;3.18;65.86;99563.27;2186359;81;20995;-81
2022/03/08 10:05:28;;;;;;;28.73;23.47;;;;;;;3.51;65.61;99566.73;2187177;81;21343;-81
2022/03/08 10:08:28;;;;;;;30.80;23.13;;;;;;;3.65;64.61;99560.98;2187812;81;20999;-81
2022/03/08 10:11:29;;;;;;;31.50;23.03;;;;;;;3.67;64.76;99556.78;2187331;81;21028;-81
2022/03/08 10:14:29;;;;;;;31.87;22.80;;;;;;;3.52;63.89;99559.87;2187145;81;20940;-80
2022/03/08 10:17:30;;;;;;;29.70;23.87;;;;;;;3.30;64.84;99561.73;2186490;81;20972;-81
2022/03/08 10:20:31;;;;;;;30.37;20.70;;;;;;;3.58;65.10;99549.86;2185922;81;20987;-80
2022/03/08 10:23:31;;;;;;;26.87;22.00;;;;;;;3.71;63.37;99553.54;2186109;81;20960;-81
2022/03/08 10:26:32;;;;;;;27.03;19.73;;;;;;;3.86;62.76;99554.70;2185853;81;21402;-80
2022/03/08 10:29:32;;;;;;;30.87;24.43;;;;;;;3.71;62.57;99543.21;2186553;81;21942;-80
2022/03/08 10:32:33;;;;;;;31.03;21.60;;;;;;;3.76;63.43;99539.16;2186619;81;21325;-80
2022/03/08 10:35:37;;;;;;;29.97;21.10;;;;;;;3.83;62.22;99541.23;2187213;81;20956;-80
2022/03/08 10:38:37;;;;;;;24.07;20.45;;;;;;;3.87;61.83;99540.09;2161707;82;21482;-81
2022/03/08 10:41:39;;;;;;;32.43;23.47;;;;;;;3.67;61.50;99538.70;2182552;81;20995;-80
2022/03/08 10:44:39;;;;;;;53.13;24.10;;;;;;;3.69;62.17;99517.72;2184933;81;21947;-79
2022/03/08 10:47:40;;;;;;;37.77;27.50;;;;;;;3.73;62.18;99519.64;2184275;81;21372;-79
2022/03/08 10:50:40;;;;;;;31.97;25.17;;;;;;;3.78;62.57;99513.41;2168923;81;21212;-80
2022/03/08 10:53:47;;;;;;;34.67;25.97;;;;;;;3.86;61.98;99513.79;2159326;82;22161;-79
2022/03/08 10:56:48;;;;;;;33.07;25.63;;;;;;;3.89;61.66;99507.48;2169346;81;21020;-80
2022/03/08 10:59:48;;;;;;;38.23;29.23;;;;;;;4.07;61.35;99513.53;2169915;81;21431;-80
2022/03/08 11:02:49;;;;;;;33.50;27.47;;;;;;;4.25;61.36;99504.07;2171183;81;21344;-81
2022/03/08 11:05:50;;;;;;;36.03;27.53;;;;;;;4.25;60.96;99500.19;2170975;81;20953;-80
2022/03/08 11:08:50;;;;;;;31.57;24.43;;;;;;;4.42;60.35;99493.26;2169963;81;21067;-80
2022/03/08 11:11:51;;;;;;;30.80;23.77;;;;;;;4.39;59.70;99490.53;2169539;81;20996;-80
2022/03/08 11:14:51;;;;;;;43.33;27.87;;;;;;;4.51;59.11;99485.04;2168992;81;20996;-80
2022/03/08 11:17:52;;;;;;;34.70;27.20;;;;;;;4.65;59.16;99489.14;2169134;81;21043;-81
2022/03/08 11:20:52;;;;;;;33.87;26.83;;;;;;;4.64;59.07;99496.42;2169142;81;21426;-81
2022/03/08 11:23:53;;;;;;;32.87;26.13;;;;;;;4.48;58.61;99497.01;2169738;81;20960;-82
2022/03/08 11:26:53;;;;;;;39.07;23.83;;;;;;;4.61;59.03;99501.45;2170011;82;21015;-81
2022/03/08 11:29:54;;;;;;;31.73;26.67;;;;;;;4.68;57.50;99504.79;2170913;81;20961;-83
2022/03/08 11:32:55;;;;;;;33.63;27.57;;;;;;;4.54;57.49;99503.27;2171207;81;20988;-81
2022/03/08 11:35:56;;;;;;;31.30;25.90;;;;;;;4.52;57.81;99491.98;2170737;81;20996;-82
2022/03/08 11:38:56;;;;;;;32.67;26.43;;;;;;;4.38;57.90;99484.88;2170573;81;20981;-81
2022/03/08 11:41:57;;;;;;;34.80;27.47;;;;;;;4.25;57.89;99479.92;2170559;81;21347;-83
2022/03/08 11:44:57;;;;;;;39.63;27.43;;;;;;;4.29;57.75;99476.67;2170993;81;21714;-80
2022/03/08 11:47:58;;;;;;;38.60;28.47;;;;;;;4.16;58.15;99478.69;2170557;81;21047;-82
2022/03/08 11:50:59;;;;;;;54.97;31.30;;;;;;;3.93;58.18;99475.42;2170862;81;21008;-80
2022/03/08 11:53:59;;;;;;;37.87;30.10;;;;;;;3.89;59.30;99470.91;2170760;81;20996;-78
2022/03/08 11:56:59;;;;;;;41.37;31.27;;;;;;;3.83;59.34;99472.80;2169004;81;20965;-80
2022/03/08 12:00:00;;;;;;;28.10;21.00;;;;;;;3.91;59.66;99469.70;2170011;81;20932;-80
2022/03/08 12:03:02;;;;;;;27.27;22.37;;;;;;;3.97;56.63;99477.73;2170499;81;20956;-79
2022/03/08 12:06:02;;;;;;;27.47;22.87;;;;;;;4.05;57.34;99477.29;2169824;81;20980;-81
2022/03/08 12:09:07;;;;;;;30.70;24.67;;;;;;;4.30;57.01;99470.69;2170345;81;20979;-80
2022/03/08 12:12:06;;;;;;;29.53;24.17;;;;;;;4.34;56.69;99465.77;2169550;81;21020;-82
2022/03/08 12:15:07;;;;;;;34.13;26.57;;;;;;;4.42;56.64;99465.70;2169990;81;21035;-83
2022/03/08 12:18:07;;;;;;;33.73;24.50;;;;;;;4.35;57.05;99469.23;2170224;81;21035;-80
2022/03/08 12:21:08;;;;;;;30.20;25.10;;;;;;;4.25;56.90;99465.30;2170228;81;20953;-82
2022/03/08 12:24:08;;;;;;;32.30;25.07;;;;;;;4.24;57.18;99450.61;2170877;81;20952;-83
2022/03/08 12:27:10;;;;;;;34.90;24.63;;;;;;;4.41;57.00;99464.34;2170072;81;21024;-80
2022/03/08 12:30:11;;;;;;;30.67;25.60;;;;;;;4.50;56.95;99457.01;2169759;82;21411;-82
2022/03/08 12:33:11;;;;;;;33.67;24.57;;;;;;;4.63;56.83;99450.28;2170307;81;20995;-81
2022/03/08 12:36:12;;;;;;;29.53;24.33;;;;;;;4.74;55.85;99451.64;2170260;81;20999;-81
2022/03/08 12:39:12;;;;;;;28.33;23.37;;;;;;;4.72;55.90;99452.39;2170452;81;21966;-81
2022/03/08 12:42:13;;;;;;;27.40;23.27;;;;;;;4.77;55.79;99450.89;2171836;81;21296;-82
2022/03/08 12:45:13;;;;;;;26.60;22.50;;;;;;;4.74;55.15;99457.22;2171724;81;20944;-82
2022/03/08 12:48:14;;;;;;;27.93;21.67;;;;;;;4.68;55.82;99457.84;2171649;81;21114;-82
2022/03/08 12:51:14;;;;;;;21.83;19.57;;;;;;;4.62;55.86;99454.09;2187541;81;21031;-82
2022/03/08 12:54:14;;;;;;;87.97;23.40;;;;;;;4.59;55.19;99462.59;2186775;81;20937;-81
2022/03/08 12:57:15;;;;;;;24.63;18.53;;;;;;;4.66;55.48;99467.63;2187349;81;21003;-82
2022/03/08 13:00:15;;;;;;;28.53;20.67;;;;;;;4.77;54.71;99490.98;2186985;81;20964;-82
2022/03/08 13:03:19;;;;;;;24.00;19.40;;;;;;;4.76;55.12;99473.28;2186811;81;20919;-82
2022/03/08 13:06:20;;;;;;;51.33;20.60;;;;;;;4.86;54.98;99468.52;2186376;81;20992;-80
2022/03/08 13:09:20;;;;;;;39.10;19.93;;;;;;;4.98;54.83;99467.35;2186821;81;20967;-79
2022/03/08 13:12:21;;;;;;;29.43;19.47;;;;;;;5.01;54.80;99467.89;2187192;81;20999;-81
2022/03/08 13:15:23;;;;;;;20.73;17.80;;;;;;;5.08;54.86;99469.93;2186834;81;20967;-81
2022/03/08 13:18:23;;;;;;;395.50;42.10;;;;;;;5.16;54.13;99467.67;2186563;81;21213;-80
2022/03/08 13:21:24;;;;;;;18.47;14.57;;;;;;;5.11;53.74;99475.23;2187019;81;20933;-80
2022/03/08 13:24:27;;;;;;;25.33;15.00;;;;;;;5.11;52.47;99465.77;2185349;81;21022;-79
2022/03/08 13:27:27;;;;;;;18.30;13.83;;;;;;;4.98;52.03;99460.00;2185991;81;21071;-80
2022/03/08 13:30:27;;;;;;;38.50;15.57;;;;;;;4.88;52.88;99460.01;2186738;81;20956;-80
2022/03/08 13:33:28;;;;;;;17.60;12.90;;;;;;;4.82;53.04;99461.03;2186157;81;20945;-78
2022/03/08 13:36:28;;;;;;;24.07;14.10;;;;;;;4.78;52.84;99453.95;2184297;81;21466;-81
2022/03/08 13:39:29;;;;;;;16.50;13.37;;;;;;;4.72;53.27;99449.39;2184939;81;21039;-82
2022/03/08 13:42:29;;;;;;;16.27;12.53;;;;;;;4.73;53.13;99452.45;2186451;81;20987;-81
2022/03/08 13:45:30;;;;;;;19.43;13.20;;;;;;;4.75;51.76;99444.77;2187328;81;21019;-81
2022/03/08 13:48:30;;;;;;;25.30;16.17;;;;;;;4.78;52.04;99461.72;2185275;81;21007;-80
2022/03/08 13:51:31;;;;;;;29.53;16.37;;;;;;;4.75;52.46;99456.41;2170038;81;20980;-81
2022/03/08 13:54:31;;;;;;;19.00;13.37;;;;;;;4.66;52.43;99456.00;2169878;81;21446;-81
2022/03/08 13:57:32;;;;;;;22.10;14.10;;;;;;;4.65;51.72;99447.35;2159471;82;21551;-81
2022/03/08 14:00:35;;;;;;;29.80;13.67;;;;;;;4.67;52.01;99451.30;2170212;81;21396;-80
2022/03/08 14:03:36;;;;;;;13.67;11.83;;;;;;;4.63;52.70;99464.50;2171294;81;21878;-80